Ana Sayfa
METAR-TAF:

METAR-TAF

Havaalanları :

Gatesville Municipal Airport

Gatesville, Teksas, Amerika Birleşik Devletleri

Enlem: 31-25-16N, Boylam: 097-47-49W, yükseklik: 276 m

Güncel hava durumu gözlemi

Rapor saat 06:15 UTC de 16 dakika önce yapıldı.
Rüzgar güneydan 7 kt ve 13 kt'a kadar ani rüzgarlar
Sıcaklık 29°C
Nem 62%
Basınç 1014 hPa
Görüş mesafesi: 16.1 km
Açık gökyüzü

METAR: KGOP 160615Z AUTO 17007G13KT 10SM CLR 29/21 A2995 RMK AO2

Saat: 01:31 (06:31 UTC)


TAF: eksik

4.000'den fazla havaalanı için hava durumu gözlemleri ve tahminleri (METAR ve TAF raporları).

Kullanılabilir istasyonlar harita üzerinde sarı ve kırmızı noktalarla gösterilir.

İstasyonun adını görmek için fareyi noktanın üzerinde gezdirin.

Sonrasında hava gözlem ve tahminlerini görmek için tıklayın.

Haritayı değiştirmek için: yaklaştırmak için siyah artı işaretli yeşil düğmeye ve uzaklaştırmak için de eksi işaretli düğmeye hızla tıklayın; bitişik haritalar için yeşil okları kullanın.


METAR-TAF: